createdAt,value
2024-04-08T00:00:28.781Z,987.21
2024-04-08T00:01:28.792Z,987.24
2024-04-08T00:02:28.838Z,987.18
2024-04-08T00:03:28.771Z,987.24
2024-04-08T00:04:28.763Z,987.20
2024-04-08T00:05:28.764Z,987.17
2024-04-08T00:06:28.726Z,987.18
2024-04-08T00:07:29.683Z,987.14
2024-04-08T00:08:28.734Z,987.14
2024-04-08T00:09:29.210Z,987.06
2024-04-08T00:10:28.694Z,987.07
2024-04-08T00:11:28.743Z,987.00
2024-04-08T00:12:28.676Z,987.08
2024-04-08T00:13:28.659Z,987.04
2024-04-08T00:14:28.659Z,987.06
2024-04-08T00:15:28.626Z,987.03
2024-04-08T00:16:28.641Z,987.01
2024-04-08T00:17:28.650Z,986.99
2024-04-08T00:18:28.623Z,986.93
2024-04-08T00:19:28.581Z,986.97
2024-04-08T00:20:28.611Z,986.92
2024-04-08T00:21:28.574Z,986.90
2024-04-08T00:22:28.541Z,986.82
2024-04-08T00:23:28.582Z,986.74
2024-04-08T00:24:28.526Z,986.71
2024-04-08T00:25:28.520Z,986.72
2024-04-08T00:26:28.524Z,986.75
2024-04-08T00:27:28.490Z,986.74
2024-04-08T00:28:28.521Z,986.72
2024-04-08T00:29:28.544Z,986.67
2024-04-08T00:30:28.450Z,986.65
2024-04-08T00:31:28.450Z,986.69
2024-04-08T00:32:28.526Z,986.64
2024-04-08T00:33:28.450Z,986.61
2024-04-08T00:34:28.434Z,986.62
2024-04-08T00:35:28.425Z,986.63
2024-04-08T00:36:28.396Z,986.60
2024-04-08T00:37:28.383Z,986.60
2024-04-08T00:38:28.455Z,986.52
2024-04-08T00:39:28.388Z,986.48
2024-04-08T00:40:28.356Z,986.41
2024-04-08T00:41:28.379Z,986.48
2024-04-08T00:42:28.356Z,986.47
2024-04-08T00:43:28.321Z,986.47
2024-04-08T00:44:28.366Z,986.53
2024-04-08T00:45:28.307Z,986.51
2024-04-08T00:46:28.292Z,986.57
2024-04-08T00:47:28.358Z,986.61
2024-04-08T00:48:28.288Z,986.59
2024-04-08T00:49:28.265Z,986.60
2024-04-08T00:50:28.274Z,986.55
2024-04-08T00:51:28.243Z,986.60
2024-04-08T00:52:28.384Z,986.60
2024-04-08T00:53:28.250Z,986.58
2024-04-08T00:54:28.199Z,986.63
2024-04-08T00:55:28.228Z,986.60
2024-04-08T00:56:28.204Z,986.61
2024-04-08T00:57:28.182Z,986.58
2024-04-08T00:58:28.158Z,986.62
2024-04-08T00:59:28.166Z,986.56
2024-04-08T01:00:28.155Z,986.63
2024-04-08T01:01:28.143Z,986.69
2024-04-08T01:02:28.136Z,986.70
2024-04-08T01:03:29.096Z,986.68
2024-04-08T01:04:28.087Z,986.66
2024-04-08T01:05:28.088Z,986.76
2024-04-08T01:06:28.067Z,986.74
2024-04-08T01:07:28.070Z,986.69
2024-04-08T01:08:28.106Z,986.66
2024-04-08T01:09:28.038Z,986.67
2024-04-08T01:10:28.026Z,986.66
2024-04-08T01:11:28.048Z,986.73
2024-04-08T01:12:28.212Z,986.66
2024-04-08T01:13:29.050Z,986.59
2024-04-08T01:14:28.018Z,986.53
2024-04-08T01:15:27.966Z,986.40
2024-04-08T01:16:28.224Z,986.32
2024-04-08T01:17:27.992Z,986.24
2024-04-08T01:18:27.935Z,986.18
2024-04-08T01:19:27.921Z,986.24
2024-04-08T01:20:27.924Z,986.23
2024-04-08T01:21:27.908Z,986.21
2024-04-08T01:22:27.919Z,986.24
2024-04-08T01:23:27.875Z,986.22
2024-04-08T01:24:27.853Z,986.15
2024-04-08T01:25:27.844Z,986.12
2024-04-08T01:26:27.864Z,986.16
2024-04-08T01:27:27.874Z,986.09
2024-04-08T01:28:27.808Z,986.08
2024-04-08T01:29:27.797Z,986.01
2024-04-08T01:30:27.822Z,985.96
2024-04-08T01:31:27.786Z,985.94
2024-04-08T01:32:27.771Z,985.99
2024-04-08T01:33:27.776Z,986.07
2024-04-08T01:34:27.746Z,986.10
2024-04-08T01:35:27.766Z,986.14
2024-04-08T01:36:27.738Z,986.14
2024-04-08T01:37:27.748Z,986.29
2024-04-08T01:38:27.731Z,986.31
2024-04-08T01:39:27.703Z,986.40
2024-04-08T01:40:27.686Z,986.42
2024-04-08T01:41:27.721Z,986.50
2024-04-08T01:42:27.676Z,986.53
2024-04-08T01:43:27.640Z,986.68
2024-04-08T01:44:27.659Z,986.72
2024-04-08T01:45:27.638Z,986.78
2024-04-08T01:46:27.643Z,986.83
2024-04-08T01:47:27.683Z,986.83
2024-04-08T01:48:27.579Z,986.82
2024-04-08T01:49:28.610Z,986.84
2024-04-08T01:50:27.611Z,986.88
2024-04-08T01:51:27.552Z,986.87
2024-04-08T01:52:27.613Z,986.85
2024-04-08T01:53:27.603Z,986.92
2024-04-08T01:54:27.550Z,987.03
2024-04-08T01:55:27.522Z,987.02
2024-04-08T01:56:27.595Z,986.86
2024-04-08T01:57:27.488Z,986.87
2024-04-08T01:58:27.496Z,986.94
2024-04-08T01:59:27.532Z,987.02
2024-04-08T02:00:27.478Z,986.98
2024-04-08T02:01:27.452Z,986.99
2024-04-08T02:02:27.507Z,986.99
2024-04-08T02:03:27.444Z,986.95
2024-04-08T02:04:27.435Z,986.95
2024-04-08T02:05:27.426Z,987.02
2024-04-08T02:06:27.390Z,987.08
2024-04-08T02:07:27.414Z,987.11
2024-04-08T02:08:27.381Z,987.10
2024-04-08T02:09:27.393Z,987.19
2024-04-08T02:10:28.211Z,987.25
2024-04-08T02:11:27.358Z,987.31
2024-04-08T02:12:27.397Z,987.26
2024-04-08T02:13:27.315Z,987.46
2024-04-08T02:14:27.309Z,987.42
2024-04-08T02:15:27.297Z,987.48
2024-04-08T02:16:27.285Z,987.47
2024-04-08T02:17:27.306Z,987.55
2024-04-08T02:18:28.185Z,987.53
2024-04-08T02:19:27.246Z,987.55
2024-04-08T02:20:27.228Z,987.52
2024-04-08T02:21:27.236Z,987.52
2024-04-08T02:22:27.216Z,987.61
2024-04-08T02:23:27.241Z,987.56
2024-04-08T02:24:27.241Z,987.55
2024-04-08T02:25:27.205Z,987.59
2024-04-08T02:26:27.168Z,987.49
2024-04-08T02:27:27.153Z,987.48
2024-04-08T02:28:27.165Z,987.38
2024-04-08T02:29:27.184Z,987.36
2024-04-08T02:30:27.137Z,987.31
2024-04-08T02:31:27.140Z,987.32
2024-04-08T02:32:27.147Z,987.28
2024-04-08T02:33:27.108Z,987.23
2024-04-08T02:34:27.113Z,987.14
2024-04-08T02:35:27.081Z,987.04
2024-04-08T02:36:27.058Z,987.00
2024-04-08T02:37:27.056Z,986.95
2024-04-08T02:38:27.048Z,986.96
2024-04-08T02:39:27.052Z,986.87
2024-04-08T02:40:27.033Z,986.77
2024-04-08T02:41:27.018Z,986.74
2024-04-08T02:42:27.001Z,986.69
2024-04-08T02:43:27.078Z,986.66
2024-04-08T02:44:26.998Z,986.62
2024-04-08T02:45:26.973Z,986.66
2024-04-08T02:46:26.958Z,986.59
2024-04-08T02:47:26.983Z,986.51
2024-04-08T02:48:26.937Z,986.61
2024-04-08T02:49:26.946Z,986.60
2024-04-08T02:50:26.957Z,986.56
2024-04-08T02:51:26.936Z,986.59
2024-04-08T02:52:26.882Z,986.61
2024-04-08T02:53:26.889Z,986.60
2024-04-08T02:54:26.869Z,986.55
2024-04-08T02:55:26.864Z,986.56
2024-04-08T02:56:26.870Z,986.64
2024-04-08T02:57:26.856Z,986.62
2024-04-08T02:58:26.827Z,986.74
2024-04-08T02:59:26.863Z,986.72
2024-04-08T03:00:26.799Z,986.68
2024-04-08T03:01:26.870Z,986.62
2024-04-08T03:02:26.774Z,986.53
2024-04-08T03:03:26.777Z,986.55
2024-04-08T03:04:26.764Z,986.64
2024-04-08T03:05:26.740Z,986.65
2024-04-08T03:06:26.776Z,986.69
2024-04-08T03:07:26.713Z,986.78
2024-04-08T03:08:26.755Z,986.82
2024-04-08T03:09:26.759Z,986.93
2024-04-08T03:10:26.715Z,986.90
2024-04-08T03:11:26.741Z,986.96
2024-04-08T03:12:26.781Z,986.84
2024-04-08T03:13:26.667Z,986.77
2024-04-08T03:14:26.671Z,986.65
2024-04-08T03:15:26.637Z,986.56
2024-04-08T03:16:26.630Z,986.49
2024-04-08T03:17:27.182Z,986.47
2024-04-08T03:18:26.604Z,986.44
2024-04-08T03:19:26.614Z,986.42
2024-04-08T03:20:26.594Z,986.31
2024-04-08T03:21:26.573Z,986.33
2024-04-08T03:22:26.568Z,986.44
2024-04-08T03:23:26.583Z,986.40
2024-04-08T03:24:26.532Z,986.39
2024-04-08T03:25:26.550Z,986.53
2024-04-08T03:26:26.504Z,986.62
2024-04-08T03:27:26.516Z,986.76
2024-04-08T03:28:26.500Z,986.89
2024-04-08T03:29:26.523Z,987.01
2024-04-08T03:30:26.540Z,987.19
2024-04-08T03:31:26.466Z,987.13
2024-04-08T03:32:26.482Z,987.25
2024-04-08T03:33:26.452Z,987.36
2024-04-08T03:34:26.434Z,987.32
2024-04-08T03:35:26.416Z,987.30
2024-04-08T03:36:26.426Z,987.40
2024-04-08T03:37:26.422Z,987.53
2024-04-08T03:38:26.424Z,987.43
2024-04-08T03:39:26.383Z,987.55
2024-04-08T03:40:26.380Z,987.46
2024-04-08T03:41:26.343Z,987.39
2024-04-08T03:42:26.346Z,987.23
2024-04-08T03:43:27.349Z,987.05
2024-04-08T03:44:26.315Z,986.96
2024-04-08T03:45:26.345Z,986.94
2024-04-08T03:46:26.292Z,986.90
2024-04-08T03:47:26.338Z,986.62
2024-04-08T03:48:26.294Z,986.47
2024-04-08T03:49:26.276Z,986.52
2024-04-08T03:50:27.194Z,986.68
2024-04-08T03:51:28.234Z,986.77
2024-04-08T03:52:27.234Z,986.84
2024-04-08T03:53:26.202Z,986.89
2024-04-08T03:54:26.259Z,987.10
2024-04-08T03:55:26.183Z,987.28
2024-04-08T03:56:26.160Z,987.58
2024-04-08T03:57:26.178Z,987.66
2024-04-08T03:58:26.153Z,987.75
2024-04-08T03:59:26.166Z,987.62
2024-04-08T04:00:26.122Z,987.48
2024-04-08T04:01:26.697Z,987.44
2024-04-08T04:02:26.090Z,987.33
2024-04-08T04:03:26.094Z,987.25
2024-04-08T04:04:26.075Z,987.19
2024-04-08T04:05:26.719Z,987.03
2024-04-08T04:06:26.165Z,986.91
2024-04-08T04:07:26.042Z,986.75
2024-04-08T04:08:26.054Z,986.65
2024-04-08T04:09:26.697Z,986.57
2024-04-08T04:10:26.709Z,986.56
2024-04-08T04:11:26.694Z,986.49
2024-04-08T04:12:27.222Z,986.27
2024-04-08T04:13:26.653Z,986.08
2024-04-08T04:14:26.705Z,986.05
2024-04-08T04:15:25.971Z,985.98
2024-04-08T04:16:25.986Z,985.98
2024-04-08T04:17:26.012Z,986.00
2024-04-08T04:18:25.904Z,985.92
2024-04-08T04:19:25.968Z,985.88
2024-04-08T04:20:26.674Z,985.93
2024-04-08T04:21:26.662Z,986.01
2024-04-08T04:22:26.652Z,986.07
2024-04-08T04:23:25.854Z,986.17
2024-04-08T04:24:26.666Z,986.26
2024-04-08T04:25:25.940Z,986.33
2024-04-08T04:26:26.230Z,986.28
2024-04-08T04:27:26.678Z,986.35
2024-04-08T04:28:26.704Z,986.34
2024-04-08T04:29:25.790Z,986.33
2024-04-08T04:30:25.808Z,986.39
2024-04-08T04:31:25.782Z,986.34
2024-04-08T04:32:25.760Z,986.32
2024-04-08T04:33:25.758Z,986.24
2024-04-08T04:34:26.679Z,986.34
2024-04-08T04:35:25.873Z,986.36
2024-04-08T04:36:26.708Z,986.46
2024-04-08T04:37:26.665Z,986.33
2024-04-08T04:38:25.702Z,986.41
2024-04-08T04:39:25.721Z,986.48
2024-04-08T04:40:25.660Z,986.55
2024-04-08T04:41:25.640Z,986.63
2024-04-08T04:42:25.650Z,986.66
2024-04-08T04:43:26.151Z,986.69
2024-04-08T04:44:25.614Z,986.71
2024-04-08T04:45:25.632Z,986.69
2024-04-08T04:46:25.638Z,986.61
2024-04-08T04:47:25.686Z,986.43
2024-04-08T04:48:25.645Z,986.40
2024-04-08T04:49:26.320Z,986.21
2024-04-08T04:50:25.544Z,986.13
2024-04-08T04:51:25.574Z,986.13
2024-04-08T04:52:25.544Z,986.18
2024-04-08T04:53:25.537Z,986.13
2024-04-08T04:54:27.301Z,985.90
2024-04-08T04:55:25.503Z,985.77
2024-04-08T04:56:25.501Z,985.68
2024-04-08T04:57:25.464Z,985.73
2024-04-08T04:58:25.524Z,985.72
2024-04-08T04:59:25.438Z,985.68
2024-04-08T05:00:25.430Z,985.57
2024-04-08T05:01:25.421Z,985.58
2024-04-08T05:02:25.425Z,985.47
2024-04-08T05:03:25.430Z,985.45
2024-04-08T05:04:25.407Z,985.39
2024-04-08T05:05:25.412Z,985.45
2024-04-08T05:06:25.384Z,985.38
2024-04-08T05:07:25.384Z,985.37
2024-04-08T05:08:25.355Z,985.38
2024-04-08T05:09:25.326Z,985.34
2024-04-08T05:10:25.338Z,985.23
2024-04-08T05:11:25.307Z,985.31
2024-04-08T05:12:25.294Z,985.29
2024-04-08T05:13:25.314Z,985.27
2024-04-08T05:14:25.270Z,985.35
2024-04-08T05:15:25.262Z,985.36
2024-04-08T05:16:25.230Z,985.36
2024-04-08T05:17:25.238Z,985.37
2024-04-08T05:18:25.208Z,985.38
2024-04-08T05:19:26.091Z,985.37
2024-04-08T05:20:25.214Z,985.48
2024-04-08T05:21:25.188Z,985.50
2024-04-08T05:22:25.154Z,985.47
2024-04-08T05:23:25.165Z,985.47
2024-04-08T05:24:25.175Z,985.55
2024-04-08T05:25:25.158Z,985.47
2024-04-08T05:26:25.201Z,985.42
2024-04-08T05:27:25.108Z,985.57
2024-04-08T05:28:25.101Z,985.51
2024-04-08T05:29:25.100Z,985.54
2024-04-08T05:30:25.088Z,985.55
2024-04-08T05:31:25.166Z,985.55
2024-04-08T05:32:25.050Z,985.59
2024-04-08T05:33:25.049Z,985.58
2024-04-08T05:34:25.021Z,985.60
2024-04-08T05:35:25.041Z,985.56
2024-04-08T05:36:24.985Z,985.65
2024-04-08T05:37:25.600Z,985.74
2024-04-08T05:38:24.975Z,985.73
2024-04-08T05:39:25.619Z,985.75
2024-04-08T05:40:24.966Z,985.70
2024-04-08T05:41:24.934Z,985.76
2024-04-08T05:42:24.935Z,985.83
2024-04-08T05:43:24.916Z,985.89
2024-04-08T05:44:25.063Z,985.84
2024-04-08T05:45:25.178Z,985.89
2024-04-08T05:46:24.877Z,985.98
2024-04-08T05:47:25.615Z,986.05
2024-04-08T05:48:24.867Z,986.19
2024-04-08T05:49:25.084Z,986.06
2024-04-08T05:50:24.843Z,986.07
2024-04-08T05:51:24.902Z,986.05
2024-04-08T05:52:24.817Z,985.95
2024-04-08T05:53:24.805Z,985.98
2024-04-08T05:54:24.815Z,986.05
2024-04-08T05:55:24.777Z,986.14
2024-04-08T05:56:25.211Z,986.17
2024-04-08T05:57:24.762Z,986.03
2024-04-08T05:58:24.761Z,986.04
2024-04-08T05:59:24.731Z,985.96
2024-04-08T06:00:25.657Z,985.94
2024-04-08T06:01:24.903Z,985.98
2024-04-08T06:02:24.740Z,985.94
2024-04-08T06:03:24.830Z,985.91
2024-04-08T06:04:24.676Z,985.94
2024-04-08T06:05:24.669Z,985.92
2024-04-08T06:06:24.673Z,986.02
2024-04-08T06:07:24.639Z,986.04
2024-04-08T06:08:24.737Z,985.92
2024-04-08T06:09:24.640Z,985.99
2024-04-08T06:10:24.733Z,985.86
2024-04-08T06:11:24.614Z,985.88
2024-04-08T06:12:24.657Z,985.87
2024-04-08T06:13:24.697Z,985.94
2024-04-08T06:14:24.563Z,985.95
2024-04-08T06:15:24.591Z,986.00
2024-04-08T06:16:24.541Z,986.02
2024-04-08T06:17:24.554Z,985.95
2024-04-08T06:18:24.573Z,985.89
2024-04-08T06:19:24.522Z,985.92
2024-04-08T06:20:24.714Z,985.90
2024-04-08T06:21:24.510Z,986.03
2024-04-08T06:22:24.498Z,985.91
2024-04-08T06:23:24.492Z,985.94
2024-04-08T06:24:24.459Z,985.93
2024-04-08T06:25:24.446Z,985.95
2024-04-08T06:26:24.465Z,985.95
2024-04-08T06:27:24.439Z,986.02
2024-04-08T06:28:24.432Z,985.90
2024-04-08T06:29:24.423Z,985.91
2024-04-08T06:30:24.418Z,985.89
2024-04-08T06:31:24.396Z,985.90
2024-04-08T06:32:24.414Z,985.89
2024-04-08T06:33:25.651Z,985.79
2024-04-08T06:34:24.452Z,985.80
2024-04-08T06:35:25.171Z,985.82
2024-04-08T06:36:24.310Z,985.82
2024-04-08T06:37:24.320Z,985.80
2024-04-08T06:38:24.303Z,985.82
2024-04-08T06:39:24.299Z,985.89
2024-04-08T06:40:24.285Z,985.81
2024-04-08T06:41:24.278Z,985.92
2024-04-08T06:42:24.272Z,986.02
2024-04-08T06:43:24.259Z,986.05
2024-04-08T06:44:25.594Z,986.04
2024-04-08T06:45:24.232Z,986.03
2024-04-08T06:46:24.218Z,986.00
2024-04-08T06:47:24.241Z,986.08
2024-04-08T06:48:24.233Z,985.96
2024-04-08T06:49:24.232Z,986.06
2024-04-08T06:50:24.177Z,986.09
2024-04-08T06:51:24.170Z,986.07
2024-04-08T06:52:24.153Z,986.09
2024-04-08T06:53:24.162Z,986.08
2024-04-08T06:54:24.143Z,985.98
2024-04-08T06:55:24.161Z,986.02
2024-04-08T06:56:24.114Z,985.97
2024-04-08T06:57:24.093Z,986.00
2024-04-08T06:58:24.085Z,986.07
2024-04-08T06:59:24.077Z,986.11
2024-04-08T07:00:24.075Z,986.05
2024-04-08T07:01:24.060Z,986.04
2024-04-08T07:02:24.060Z,986.02
2024-04-08T07:03:24.033Z,986.09
2024-04-08T07:04:24.023Z,985.98
2024-04-08T07:05:24.040Z,986.00
2024-04-08T07:06:24.047Z,985.93
2024-04-08T07:07:23.988Z,985.97
2024-04-08T07:08:23.972Z,985.93
2024-04-08T07:09:23.963Z,985.92
2024-04-08T07:10:23.954Z,985.90
2024-04-08T07:11:23.938Z,985.95
2024-04-08T07:12:23.933Z,985.94
2024-04-08T07:13:23.919Z,985.86
2024-04-08T07:14:23.904Z,985.89
2024-04-08T07:15:23.900Z,985.89
2024-04-08T07:16:23.892Z,985.85
2024-04-08T07:17:23.903Z,985.78
2024-04-08T07:18:23.929Z,985.88
2024-04-08T07:19:23.852Z,985.87
2024-04-08T07:20:23.854Z,985.85
2024-04-08T07:21:23.860Z,985.83
2024-04-08T07:22:24.009Z,985.82
2024-04-08T07:23:23.832Z,985.83
2024-04-08T07:24:23.842Z,985.88
2024-04-08T07:25:23.808Z,985.85
2024-04-08T07:26:23.785Z,985.82
2024-04-08T07:27:23.881Z,985.75
2024-04-08T07:28:23.778Z,985.76
2024-04-08T07:29:23.760Z,985.75
2024-04-08T07:30:23.742Z,985.77
2024-04-08T07:31:23.773Z,985.76
2024-04-08T07:32:23.724Z,985.77
2024-04-08T07:33:23.754Z,985.73
2024-04-08T07:34:23.694Z,985.71
2024-04-08T07:35:26.389Z,985.74
2024-04-08T07:36:24.700Z,985.67
2024-04-08T07:37:23.674Z,985.66
2024-04-08T07:38:23.662Z,985.65
2024-04-08T07:39:27.310Z,985.65
2024-04-08T07:40:25.655Z,985.57
2024-04-08T07:41:24.177Z,985.65
2024-04-08T07:42:23.685Z,985.68
2024-04-08T07:43:23.609Z,985.68
2024-04-08T07:44:23.593Z,985.74
2024-04-08T07:45:23.592Z,985.69
2024-04-08T07:46:23.595Z,985.65
2024-04-08T07:47:23.603Z,985.65
2024-04-08T07:48:23.590Z,985.60
2024-04-08T07:49:23.552Z,985.59
2024-04-08T07:50:23.542Z,985.59
2024-04-08T07:51:23.612Z,985.52
2024-04-08T07:52:23.567Z,985.63
2024-04-08T07:53:23.536Z,985.54
2024-04-08T07:54:23.497Z,985.46
2024-04-08T07:55:23.494Z,985.52
2024-04-08T07:56:23.502Z,985.54
2024-04-08T07:57:23.491Z,985.56
2024-04-08T07:58:23.447Z,985.54
2024-04-08T07:59:23.443Z,985.56
2024-04-08T08:00:23.456Z,985.44
2024-04-08T08:01:24.171Z,985.51
2024-04-08T08:02:23.431Z,985.56
2024-04-08T08:03:23.408Z,985.55
2024-04-08T08:04:23.406Z,985.49
2024-04-08T08:05:23.376Z,985.48
2024-04-08T08:06:23.425Z,985.53
2024-04-08T08:07:23.391Z,985.42
2024-04-08T08:08:23.372Z,985.45
2024-04-08T08:09:23.339Z,985.46
2024-04-08T08:10:23.346Z,985.52
2024-04-08T08:11:23.361Z,985.49
2024-04-08T08:12:23.343Z,985.41
2024-04-08T08:13:23.310Z,985.49
2024-04-08T08:14:23.321Z,985.51
2024-04-08T08:15:23.295Z,985.50
2024-04-08T08:16:23.284Z,985.50
2024-04-08T08:17:23.303Z,985.46
2024-04-08T08:18:23.451Z,985.44
2024-04-08T08:19:23.246Z,985.51
2024-04-08T08:20:23.243Z,985.54
2024-04-08T08:21:23.245Z,985.51
2024-04-08T08:22:23.260Z,985.53
2024-04-08T08:23:23.216Z,985.55
2024-04-08T08:24:23.189Z,985.50
2024-04-08T08:25:23.192Z,985.57
2024-04-08T08:26:23.249Z,985.52
2024-04-08T08:27:23.222Z,985.46
2024-04-08T08:28:23.173Z,985.42
2024-04-08T08:29:23.188Z,985.50
2024-04-08T08:30:23.172Z,985.46
2024-04-08T08:31:23.768Z,985.48
2024-04-08T08:32:23.134Z,985.48
2024-04-08T08:33:23.122Z,985.44
2024-04-08T08:34:23.141Z,985.38
2024-04-08T08:35:23.088Z,985.36
2024-04-08T08:36:23.069Z,985.41
2024-04-08T08:37:23.093Z,985.41
2024-04-08T08:38:23.073Z,985.47
2024-04-08T08:39:23.043Z,985.38
2024-04-08T08:40:23.062Z,985.42
2024-04-08T08:41:23.026Z,985.32
2024-04-08T08:42:23.034Z,985.40
2024-04-08T08:43:23.026Z,985.39
2024-04-08T08:44:22.994Z,985.35
2024-04-08T08:45:22.979Z,985.34
2024-04-08T08:46:22.996Z,985.33
2024-04-08T08:47:23.054Z,985.33
2024-04-08T08:48:23.157Z,985.29
2024-04-08T08:49:23.019Z,985.24
2024-04-08T08:50:22.935Z,985.23
2024-04-08T08:51:22.934Z,985.21
2024-04-08T08:52:22.943Z,985.28
2024-04-08T08:53:22.981Z,985.31
2024-04-08T08:54:22.910Z,985.25
2024-04-08T08:55:22.899Z,985.32
2024-04-08T08:56:22.894Z,985.38
2024-04-08T08:57:22.937Z,985.37
2024-04-08T08:58:22.934Z,985.43
2024-04-08T08:59:22.889Z,985.39
2024-04-08T09:00:22.836Z,985.44
2024-04-08T09:01:22.837Z,985.38
2024-04-08T09:02:22.830Z,985.36
2024-04-08T09:03:22.846Z,985.35
2024-04-08T09:04:22.818Z,985.38
2024-04-08T09:05:22.811Z,985.28
2024-04-08T09:06:22.806Z,985.31
2024-04-08T09:07:22.776Z,985.19
2024-04-08T09:08:22.802Z,985.20
2024-04-08T09:09:22.787Z,985.10
2024-04-08T09:10:23.748Z,985.17
2024-04-08T09:11:22.798Z,985.21
2024-04-08T09:12:22.731Z,985.07
2024-04-08T09:13:22.741Z,985.02
2024-04-08T09:14:22.718Z,984.99
2024-04-08T09:15:22.724Z,984.92
2024-04-08T09:16:22.684Z,985.01
2024-04-08T09:17:22.677Z,985.13
2024-04-08T09:18:23.053Z,985.08
2024-04-08T09:19:22.688Z,985.11
2024-04-08T09:20:22.666Z,985.13
2024-04-08T09:21:22.643Z,985.08
2024-04-08T09:22:22.649Z,985.07
2024-04-08T09:23:22.628Z,985.07
2024-04-08T09:24:22.612Z,985.02
2024-04-08T09:25:22.592Z,984.96
2024-04-08T09:26:22.584Z,984.99
2024-04-08T09:27:23.660Z,984.98
2024-04-08T09:28:22.606Z,984.96
2024-04-08T09:29:22.584Z,985.01
2024-04-08T09:30:22.741Z,985.01
2024-04-08T09:31:22.527Z,984.90
2024-04-08T09:32:22.545Z,985.06
2024-04-08T09:33:22.702Z,984.91
2024-04-08T09:34:22.519Z,985.01
2024-04-08T09:35:22.559Z,985.04
2024-04-08T09:36:22.493Z,984.99
2024-04-08T09:37:22.494Z,984.91
2024-04-08T09:38:22.481Z,984.95
2024-04-08T09:39:22.484Z,984.96
2024-04-08T09:40:22.487Z,984.97
2024-04-08T09:41:22.570Z,984.95
2024-04-08T09:42:22.439Z,984.92
2024-04-08T09:43:22.501Z,984.97
2024-04-08T09:44:22.517Z,985.03
2024-04-08T09:45:22.635Z,984.97
2024-04-08T09:46:22.397Z,984.97
2024-04-08T09:47:22.529Z,984.93
2024-04-08T09:48:22.623Z,985.00
2024-04-08T09:49:24.647Z,984.97
2024-04-08T09:50:22.375Z,984.83
2024-04-08T09:51:22.337Z,984.86
2024-04-08T09:52:22.340Z,984.71
2024-04-08T09:53:22.376Z,984.80
2024-04-08T09:54:22.318Z,984.67
2024-04-08T09:55:22.297Z,984.66
2024-04-08T09:56:22.295Z,984.76
2024-04-08T09:57:22.284Z,984.72
2024-04-08T09:58:22.319Z,984.76
2024-04-08T09:59:22.306Z,984.64
2024-04-08T10:00:22.372Z,984.76
2024-04-08T10:01:22.231Z,984.80
2024-04-08T10:02:22.243Z,984.87
2024-04-08T10:03:22.215Z,984.80
2024-04-08T10:04:22.252Z,984.85
2024-04-08T10:05:22.253Z,984.86
2024-04-08T10:06:22.206Z,984.81
2024-04-08T10:07:22.217Z,984.85
2024-04-08T10:08:22.776Z,984.84
2024-04-08T10:09:22.212Z,984.74
2024-04-08T10:10:22.171Z,984.74
2024-04-08T10:11:22.268Z,984.75
2024-04-08T10:12:22.228Z,984.81
2024-04-08T10:13:22.118Z,984.67
2024-04-08T10:14:22.861Z,984.76
2024-04-08T10:15:22.169Z,984.82
2024-04-08T10:16:22.100Z,984.85
2024-04-08T10:17:22.164Z,984.81
2024-04-08T10:18:22.155Z,984.81
2024-04-08T10:19:22.141Z,984.72
2024-04-08T10:20:22.080Z,984.75
2024-04-08T10:21:22.043Z,984.72
2024-04-08T10:22:22.046Z,984.82
2024-04-08T10:23:22.046Z,984.82
2024-04-08T10:24:22.383Z,984.77
2024-04-08T10:25:23.921Z,984.71
2024-04-08T10:26:23.036Z,984.67
2024-04-08T10:27:22.028Z,984.71
2024-04-08T10:28:22.019Z,984.73
2024-04-08T10:29:21.983Z,984.70
2024-04-08T10:30:21.983Z,984.67
2024-04-08T10:31:21.967Z,984.72
2024-04-08T10:32:21.970Z,984.72
2024-04-08T10:33:21.997Z,984.52
2024-04-08T10:34:21.934Z,984.43
2024-04-08T10:35:21.905Z,984.70
2024-04-08T10:36:21.930Z,984.64
2024-04-08T10:37:23.672Z,984.63
2024-04-08T10:38:21.881Z,984.59
2024-04-08T10:39:22.060Z,984.58
2024-04-08T10:40:21.860Z,984.52
2024-04-08T10:41:21.880Z,984.61
2024-04-08T10:42:21.892Z,984.55
2024-04-08T10:43:21.828Z,984.49
2024-04-08T10:44:21.806Z,984.58
2024-04-08T10:45:21.821Z,984.60
2024-04-08T10:46:21.815Z,984.61
2024-04-08T10:47:21.856Z,984.63
2024-04-08T10:48:22.090Z,984.62
2024-04-08T10:49:21.798Z,984.66
2024-04-08T10:50:21.765Z,984.73
2024-04-08T10:51:22.718Z,984.76
2024-04-08T10:52:21.750Z,984.85
2024-04-08T10:53:21.756Z,984.85
2024-04-08T10:54:21.712Z,984.76
2024-04-08T10:55:21.747Z,984.80
2024-04-08T10:56:21.752Z,984.81
2024-04-08T10:57:21.707Z,984.88
2024-04-08T10:58:21.697Z,984.84
2024-04-08T10:59:21.697Z,984.85
2024-04-08T11:00:21.712Z,984.77
2024-04-08T11:01:21.697Z,984.67
2024-04-08T11:02:21.711Z,984.69
2024-04-08T11:03:21.644Z,984.76
2024-04-08T11:04:22.648Z,984.71
2024-04-08T11:05:21.620Z,984.73
2024-04-08T11:06:23.180Z,984.60
2024-04-08T11:07:21.639Z,984.75
2024-04-08T11:08:21.605Z,984.72
2024-04-08T11:09:21.620Z,984.67
2024-04-08T11:10:21.568Z,984.65
2024-04-08T11:11:21.742Z,984.68
2024-04-08T11:12:21.833Z,984.68
2024-04-08T11:13:21.652Z,984.71
2024-04-08T11:14:21.550Z,984.66
2024-04-08T11:15:21.610Z,984.76
2024-04-08T11:16:21.520Z,984.64
2024-04-08T11:17:21.484Z,984.73
2024-04-08T11:18:22.168Z,984.70
2024-04-08T11:19:21.489Z,984.78
2024-04-08T11:20:21.474Z,984.79
2024-04-08T11:21:21.517Z,984.89
2024-04-08T11:22:21.616Z,984.82
2024-04-08T11:23:22.077Z,984.83
2024-04-08T11:24:21.470Z,984.84
2024-04-08T11:25:21.417Z,984.87
2024-04-08T11:26:21.437Z,984.86
2024-04-08T11:27:21.473Z,984.84
2024-04-08T11:28:21.430Z,984.76
2024-04-08T11:29:21.379Z,984.85
2024-04-08T11:30:21.503Z,984.82
2024-04-08T11:31:21.370Z,984.76
2024-04-08T11:32:21.359Z,984.77
2024-04-08T11:33:21.503Z,984.67
2024-04-08T11:34:21.344Z,984.70
2024-04-08T11:35:21.336Z,984.69
2024-04-08T11:36:21.391Z,984.71
2024-04-08T11:37:21.295Z,984.67
2024-04-08T11:38:30.539Z,984.73
2024-04-08T11:39:23.360Z,984.68
2024-04-08T11:40:21.271Z,984.66
2024-04-08T11:41:22.300Z,984.65
2024-04-08T11:42:21.613Z,984.68
2024-04-08T11:43:21.331Z,984.77
2024-04-08T11:44:21.290Z,984.77
2024-04-08T11:45:21.432Z,984.74
2024-04-08T11:46:21.339Z,984.71
2024-04-08T11:47:21.261Z,984.72
2024-04-08T11:48:21.433Z,984.71
2024-04-08T11:49:21.221Z,984.70
2024-04-08T11:50:21.207Z,984.67
2024-04-08T11:51:21.257Z,984.70
2024-04-08T11:52:21.170Z,984.67
2024-04-08T11:53:21.148Z,984.74
2024-04-08T11:54:21.157Z,984.69
2024-04-08T11:55:21.292Z,984.64
2024-04-08T11:56:21.123Z,984.63
2024-04-08T11:57:21.157Z,984.69
2024-04-08T11:58:21.098Z,984.69
2024-04-08T11:59:21.106Z,984.68
2024-04-08T12:00:21.505Z,984.68
2024-04-08T12:01:22.084Z,984.72
2024-04-08T12:02:21.095Z,984.79
2024-04-08T12:03:21.080Z,984.69
2024-04-08T12:04:21.069Z,984.75
2024-04-08T12:05:21.054Z,984.57
2024-04-08T12:06:21.105Z,984.70
2024-04-08T12:07:21.004Z,984.67
2024-04-08T12:08:21.030Z,984.64
2024-04-08T12:09:21.061Z,984.58
2024-04-08T12:10:21.034Z,984.65
2024-04-08T12:11:21.019Z,984.56
2024-04-08T12:12:21.043Z,984.66
2024-04-08T12:13:20.959Z,984.62
2024-04-08T12:14:20.971Z,984.66
2024-04-08T12:15:21.011Z,984.65
2024-04-08T12:16:20.928Z,984.61
2024-04-08T12:17:20.911Z,984.60
2024-04-08T12:18:21.988Z,984.56
2024-04-08T12:19:21.257Z,984.60
2024-04-08T12:20:20.885Z,984.56
2024-04-08T12:21:20.905Z,984.57
2024-04-08T12:22:20.867Z,984.53
2024-04-08T12:23:20.845Z,984.55
2024-04-08T12:24:20.913Z,984.55
2024-04-08T12:25:20.825Z,984.56
2024-04-08T12:26:20.792Z,984.44
2024-04-08T12:27:20.817Z,984.39
2024-04-08T12:28:20.787Z,984.44